sensor_id;sensor_type;location;lat;lon;timestamp;P1;durP1;ratioP1;P2;durP2;ratioP2
27187;SDS011;14708;50.872;5.306;2024-01-15T00:00:41;5.60;;;3.45;;
27187;SDS011;14708;50.872;5.306;2024-01-15T00:03:08;4.95;;;3.30;;
27187;SDS011;14708;50.872;5.306;2024-01-15T00:05:34;4.65;;;3.63;;
27187;SDS011;14708;50.872;5.306;2024-01-15T00:08:00;4.70;;;3.30;;
27187;SDS011;14708;50.872;5.306;2024-01-15T00:10:26;5.60;;;3.55;;
27187;SDS011;14708;50.872;5.306;2024-01-15T00:12:53;6.07;;;3.13;;
27187;SDS011;14708;50.872;5.306;2024-01-15T00:15:18;3.63;;;2.80;;
27187;SDS011;14708;50.872;5.306;2024-01-15T00:17:45;4.95;;;3.55;;
27187;SDS011;14708;50.872;5.306;2024-01-15T00:20:11;4.22;;;3.22;;
27187;SDS011;14708;50.872;5.306;2024-01-15T00:22:40;4.97;;;3.35;;
27187;SDS011;14708;50.872;5.306;2024-01-15T00:25:06;6.47;;;3.60;;
27187;SDS011;14708;50.872;5.306;2024-01-15T00:27:33;5.45;;;3.40;;
27187;SDS011;14708;50.872;5.306;2024-01-15T00:30:01;4.63;;;3.47;;
27187;SDS011;14708;50.872;5.306;2024-01-15T00:32:27;6.63;;;3.80;;
27187;SDS011;14708;50.872;5.306;2024-01-15T00:34:53;5.07;;;4.10;;
27187;SDS011;14708;50.872;5.306;2024-01-15T00:37:19;4.60;;;3.65;;
27187;SDS011;14708;50.872;5.306;2024-01-15T00:39:44;5.60;;;3.33;;
27187;SDS011;14708;50.872;5.306;2024-01-15T00:42:10;5.07;;;3.40;;
27187;SDS011;14708;50.872;5.306;2024-01-15T00:44:35;4.80;;;3.53;;
27187;SDS011;14708;50.872;5.306;2024-01-15T00:47:01;4.00;;;3.50;;
27187;SDS011;14708;50.872;5.306;2024-01-15T00:49:27;5.20;;;3.67;;
27187;SDS011;14708;50.872;5.306;2024-01-15T00:51:53;3.63;;;3.22;;
27187;SDS011;14708;50.872;5.306;2024-01-15T00:54:18;4.55;;;3.60;;
27187;SDS011;14708;50.872;5.306;2024-01-15T00:56:44;5.20;;;3.45;;
27187;SDS011;14708;50.872;5.306;2024-01-15T00:59:09;3.83;;;3.30;;
27187;SDS011;14708;50.872;5.306;2024-01-15T01:01:35;4.88;;;3.83;;
27187;SDS011;14708;50.872;5.306;2024-01-15T01:04:02;4.97;;;3.58;;
27187;SDS011;14708;50.872;5.306;2024-01-15T01:06:28;4.70;;;3.08;;
27187;SDS011;14708;50.872;5.306;2024-01-15T01:08:54;4.65;;;3.03;;
27187;SDS011;14708;50.872;5.306;2024-01-15T01:11:21;4.45;;;3.65;;
27187;SDS011;14708;50.872;5.306;2024-01-15T01:13:47;6.55;;;3.92;;
27187;SDS011;14708;50.872;5.306;2024-01-15T01:16:13;4.47;;;3.35;;
27187;SDS011;14708;50.872;5.306;2024-01-15T01:18:39;3.92;;;3.53;;
27187;SDS011;14708;50.872;5.306;2024-01-15T01:21:05;5.57;;;3.90;;
27187;SDS011;14708;50.872;5.306;2024-01-15T01:23:30;4.22;;;3.05;;
27187;SDS011;14708;50.872;5.306;2024-01-15T01:25:56;4.13;;;3.15;;
27187;SDS011;14708;50.872;5.306;2024-01-15T01:28:22;5.65;;;3.78;;
27187;SDS011;14708;50.872;5.306;2024-01-15T01:30:47;4.75;;;3.42;;
27187;SDS011;14708;50.872;5.306;2024-01-15T01:33:13;3.75;;;3.08;;
27187;SDS011;14708;50.872;5.306;2024-01-15T01:35:39;4.20;;;3.45;;
27187;SDS011;14708;50.872;5.306;2024-01-15T01:38:05;3.50;;;3.17;;
27187;SDS011;14708;50.872;5.306;2024-01-15T01:40:31;4.80;;;3.30;;
27187;SDS011;14708;50.872;5.306;2024-01-15T01:42:57;5.50;;;3.95;;
27187;SDS011;14708;50.872;5.306;2024-01-15T01:45:22;5.20;;;3.65;;
27187;SDS011;14708;50.872;5.306;2024-01-15T01:47:48;5.05;;;3.72;;
27187;SDS011;14708;50.872;5.306;2024-01-15T01:50:14;4.70;;;3.15;;
27187;SDS011;14708;50.872;5.306;2024-01-15T01:52:40;5.30;;;3.72;;
27187;SDS011;14708;50.872;5.306;2024-01-15T01:55:06;4.78;;;3.38;;
27187;SDS011;14708;50.872;5.306;2024-01-15T01:57:34;6.38;;;4.40;;
27187;SDS011;14708;50.872;5.306;2024-01-15T02:00:01;3.92;;;3.33;;
27187;SDS011;14708;50.872;5.306;2024-01-15T02:02:29;6.60;;;4.00;;
27187;SDS011;14708;50.872;5.306;2024-01-15T02:04:55;3.92;;;2.88;;
27187;SDS011;14708;50.872;5.306;2024-01-15T02:07:21;4.68;;;3.67;;
27187;SDS011;14708;50.872;5.306;2024-01-15T02:09:49;4.20;;;3.00;;
27187;SDS011;14708;50.872;5.306;2024-01-15T02:12:15;3.92;;;2.97;;
27187;SDS011;14708;50.872;5.306;2024-01-15T02:14:41;4.05;;;3.40;;
27187;SDS011;14708;50.872;5.306;2024-01-15T02:17:07;4.25;;;3.30;;
27187;SDS011;14708;50.872;5.306;2024-01-15T02:19:32;4.57;;;3.42;;
27187;SDS011;14708;50.872;5.306;2024-01-15T02:21:58;5.82;;;3.40;;
27187;SDS011;14708;50.872;5.306;2024-01-15T02:24:25;4.22;;;3.00;;
27187;SDS011;14708;50.872;5.306;2024-01-15T02:26:51;4.85;;;3.60;;
27187;SDS011;14708;50.872;5.306;2024-01-15T02:29:16;4.65;;;3.47;;
27187;SDS011;14708;50.872;5.306;2024-01-15T02:31:43;5.32;;;3.47;;
27187;SDS011;14708;50.872;5.306;2024-01-15T02:34:09;4.97;;;3.53;;
27187;SDS011;14708;50.872;5.306;2024-01-15T02:36:35;5.38;;;3.47;;
27187;SDS011;14708;50.872;5.306;2024-01-15T02:39:02;4.45;;;3.85;;
27187;SDS011;14708;50.872;5.306;2024-01-15T02:41:28;4.03;;;3.13;;
27187;SDS011;14708;50.872;5.306;2024-01-15T02:46:54;6.07;;;4.10;;
27187;SDS011;14708;50.872;5.306;2024-01-15T02:49:20;3.92;;;3.00;;
27187;SDS011;14708;50.872;5.306;2024-01-15T02:51:46;5.00;;;3.60;;
27187;SDS011;14708;50.872;5.306;2024-01-15T02:54:12;4.50;;;3.30;;
27187;SDS011;14708;50.872;5.306;2024-01-15T02:56:37;4.85;;;3.85;;
27187;SDS011;14708;50.872;5.306;2024-01-15T02:59:03;3.80;;;3.05;;
27187;SDS011;14708;50.872;5.306;2024-01-15T03:01:29;4.97;;;3.75;;
27187;SDS011;14708;50.872;5.306;2024-01-15T03:03:54;4.88;;;3.45;;
27187;SDS011;14708;50.872;5.306;2024-01-15T03:06:20;5.88;;;3.25;;
27187;SDS011;14708;50.872;5.306;2024-01-15T03:08:46;4.63;;;3.47;;
27187;SDS011;14708;50.872;5.306;2024-01-15T03:11:11;3.55;;;3.22;;
27187;SDS011;14708;50.872;5.306;2024-01-15T03:13:38;3.35;;;3.03;;
27187;SDS011;14708;50.872;5.306;2024-01-15T03:16:05;5.72;;;3.88;;
27187;SDS011;14708;50.872;5.306;2024-01-15T03:18:31;5.40;;;3.55;;
27187;SDS011;14708;50.872;5.306;2024-01-15T03:20:57;5.43;;;3.55;;
27187;SDS011;14708;50.872;5.306;2024-01-15T03:23:26;4.20;;;3.33;;
27187;SDS011;14708;50.872;5.306;2024-01-15T03:25:52;4.20;;;3.22;;
27187;SDS011;14708;50.872;5.306;2024-01-15T03:28:18;4.03;;;3.25;;
27187;SDS011;14708;50.872;5.306;2024-01-15T03:30:45;4.75;;;3.75;;
27187;SDS011;14708;50.872;5.306;2024-01-15T03:33:10;4.18;;;3.30;;
27187;SDS011;14708;50.872;5.306;2024-01-15T03:35:36;4.75;;;3.92;;
27187;SDS011;14708;50.872;5.306;2024-01-15T03:38:02;5.53;;;3.50;;
27187;SDS011;14708;50.872;5.306;2024-01-15T03:40:28;4.43;;;3.20;;
27187;SDS011;14708;50.872;5.306;2024-01-15T03:42:54;4.55;;;3.55;;
27187;SDS011;14708;50.872;5.306;2024-01-15T03:45:20;4.55;;;3.38;;
27187;SDS011;14708;50.872;5.306;2024-01-15T03:47:47;4.45;;;3.22;;
27187;SDS011;14708;50.872;5.306;2024-01-15T03:50:12;4.15;;;3.45;;
27187;SDS011;14708;50.872;5.306;2024-01-15T03:52:39;4.30;;;3.38;;
27187;SDS011;14708;50.872;5.306;2024-01-15T03:55:04;4.93;;;3.20;;
27187;SDS011;14708;50.872;5.306;2024-01-15T03:57:30;3.92;;;3.05;;
27187;SDS011;14708;50.872;5.306;2024-01-15T03:59:56;4.30;;;3.40;;
27187;SDS011;14708;50.872;5.306;2024-01-15T04:02:22;3.90;;;3.42;;
27187;SDS011;14708;50.872;5.306;2024-01-15T04:04:48;4.88;;;3.53;;
27187;SDS011;14708;50.872;5.306;2024-01-15T04:07:15;3.70;;;2.83;;
27187;SDS011;14708;50.872;5.306;2024-01-15T04:09:40;3.97;;;3.17;;
27187;SDS011;14708;50.872;5.306;2024-01-15T04:12:06;3.80;;;3.00;;
27187;SDS011;14708;50.872;5.306;2024-01-15T04:14:34;4.53;;;3.20;;
27187;SDS011;14708;50.872;5.306;2024-01-15T04:16:59;4.57;;;3.25;;
27187;SDS011;14708;50.872;5.306;2024-01-15T04:19:26;4.88;;;3.28;;
27187;SDS011;14708;50.872;5.306;2024-01-15T04:21:51;3.20;;;2.90;;
27187;SDS011;14708;50.872;5.306;2024-01-15T04:24:18;5.80;;;2.90;;
27187;SDS011;14708;50.872;5.306;2024-01-15T04:26:45;4.20;;;3.28;;
27187;SDS011;14708;50.872;5.306;2024-01-15T04:29:10;3.90;;;3.30;;
27187;SDS011;14708;50.872;5.306;2024-01-15T04:31:37;4.20;;;3.30;;
27187;SDS011;14708;50.872;5.306;2024-01-15T04:34:02;4.72;;;3.03;;
27187;SDS011;14708;50.872;5.306;2024-01-15T04:36:28;4.55;;;3.00;;
27187;SDS011;14708;50.872;5.306;2024-01-15T04:38:54;4.82;;;3.28;;
27187;SDS011;14708;50.872;5.306;2024-01-15T04:41:19;3.95;;;2.90;;
27187;SDS011;14708;50.872;5.306;2024-01-15T04:43:45;4.00;;;3.05;;
27187;SDS011;14708;50.872;5.306;2024-01-15T04:46:11;4.32;;;3.00;;
27187;SDS011;14708;50.872;5.306;2024-01-15T04:48:38;4.32;;;3.20;;
27187;SDS011;14708;50.872;5.306;2024-01-15T04:51:05;3.55;;;2.85;;
27187;SDS011;14708;50.872;5.306;2024-01-15T04:53:31;4.80;;;3.65;;
27187;SDS011;14708;50.872;5.306;2024-01-15T04:55:58;3.97;;;3.13;;
27187;SDS011;14708;50.872;5.306;2024-01-15T04:58:24;4.22;;;3.22;;
27187;SDS011;14708;50.872;5.306;2024-01-15T05:00:51;4.10;;;3.42;;
27187;SDS011;14708;50.872;5.306;2024-01-15T05:03:18;3.92;;;3.03;;
27187;SDS011;14708;50.872;5.306;2024-01-15T05:05:43;4.25;;;3.08;;
27187;SDS011;14708;50.872;5.306;2024-01-15T05:08:10;3.88;;;2.83;;
27187;SDS011;14708;50.872;5.306;2024-01-15T05:10:36;4.55;;;2.97;;
27187;SDS011;14708;50.872;5.306;2024-01-15T05:13:02;4.25;;;3.00;;
27187;SDS011;14708;50.872;5.306;2024-01-15T05:15:27;4.93;;;3.30;;
27187;SDS011;14708;50.872;5.306;2024-01-15T05:17:53;3.72;;;2.95;;
27187;SDS011;14708;50.872;5.306;2024-01-15T05:20:19;4.82;;;3.30;;
27187;SDS011;14708;50.872;5.306;2024-01-15T05:22:44;3.65;;;3.08;;
27187;SDS011;14708;50.872;5.306;2024-01-15T05:25:10;4.38;;;3.10;;
27187;SDS011;14708;50.872;5.306;2024-01-15T05:27:35;4.05;;;2.85;;
27187;SDS011;14708;50.872;5.306;2024-01-15T05:30:02;3.92;;;2.95;;
27187;SDS011;14708;50.872;5.306;2024-01-15T05:32:28;3.75;;;3.03;;
27187;SDS011;14708;50.872;5.306;2024-01-15T05:34:55;3.63;;;2.78;;
27187;SDS011;14708;50.872;5.306;2024-01-15T05:37:21;3.10;;;2.60;;
27187;SDS011;14708;50.872;5.306;2024-01-15T05:39:47;3.83;;;3.03;;
27187;SDS011;14708;50.872;5.306;2024-01-15T05:42:14;5.28;;;3.58;;
27187;SDS011;14708;50.872;5.306;2024-01-15T05:44:40;3.83;;;3.15;;
27187;SDS011;14708;50.872;5.306;2024-01-15T05:47:06;4.68;;;3.45;;
27187;SDS011;14708;50.872;5.306;2024-01-15T05:49:32;3.72;;;2.92;;
27187;SDS011;14708;50.872;5.306;2024-01-15T05:51:58;3.40;;;2.65;;
27187;SDS011;14708;50.872;5.306;2024-01-15T05:54:24;3.88;;;3.17;;
27187;SDS011;14708;50.872;5.306;2024-01-15T05:56:49;3.88;;;3.03;;
27187;SDS011;14708;50.872;5.306;2024-01-15T05:59:15;3.53;;;2.70;;
27187;SDS011;14708;50.872;5.306;2024-01-15T06:01:41;3.85;;;3.10;;
27187;SDS011;14708;50.872;5.306;2024-01-15T06:04:07;3.60;;;2.88;;
27187;SDS011;14708;50.872;5.306;2024-01-15T06:06:34;3.50;;;2.67;;
27187;SDS011;14708;50.872;5.306;2024-01-15T06:08:59;4.20;;;3.33;;
27187;SDS011;14708;50.872;5.306;2024-01-15T06:11:30;4.75;;;3.05;;
27187;SDS011;14708;50.872;5.306;2024-01-15T06:13:56;3.17;;;2.67;;
27187;SDS011;14708;50.872;5.306;2024-01-15T06:16:22;3.20;;;2.70;;
27187;SDS011;14708;50.872;5.306;2024-01-15T06:18:49;8.38;;;3.67;;
27187;SDS011;14708;50.872;5.306;2024-01-15T06:21:15;4.07;;;3.00;;
27187;SDS011;14708;50.872;5.306;2024-01-15T06:23:41;5.40;;;3.58;;
27187;SDS011;14708;50.872;5.306;2024-01-15T06:26:07;4.18;;;3.15;;
27187;SDS011;14708;50.872;5.306;2024-01-15T06:28:32;4.55;;;3.20;;
27187;SDS011;14708;50.872;5.306;2024-01-15T06:30:59;4.00;;;3.08;;
27187;SDS011;14708;50.872;5.306;2024-01-15T06:33:24;3.83;;;3.20;;
27187;SDS011;14708;50.872;5.306;2024-01-15T06:35:50;4.35;;;3.20;;
27187;SDS011;14708;50.872;5.306;2024-01-15T06:38:16;3.05;;;2.60;;
27187;SDS011;14708;50.872;5.306;2024-01-15T06:40:43;4.53;;;3.10;;
27187;SDS011;14708;50.872;5.306;2024-01-15T06:43:13;2.55;;;2.35;;
27187;SDS011;14708;50.872;5.306;2024-01-15T06:45:40;3.83;;;2.83;;
27187;SDS011;14708;50.872;5.306;2024-01-15T06:48:06;4.15;;;3.30;;
27187;SDS011;14708;50.872;5.306;2024-01-15T06:50:32;2.88;;;2.30;;
27187;SDS011;14708;50.872;5.306;2024-01-15T06:52:58;3.63;;;2.85;;
27187;SDS011;14708;50.872;5.306;2024-01-15T06:55:24;5.18;;;3.03;;
27187;SDS011;14708;50.872;5.306;2024-01-15T06:57:50;4.20;;;3.10;;
27187;SDS011;14708;50.872;5.306;2024-01-15T07:00:16;5.18;;;3.38;;
27187;SDS011;14708;50.872;5.306;2024-01-15T07:02:42;5.05;;;3.10;;
27187;SDS011;14708;50.872;5.306;2024-01-15T07:05:08;4.55;;;3.10;;
27187;SDS011;14708;50.872;5.306;2024-01-15T07:07:35;5.47;;;2.90;;
27187;SDS011;14708;50.872;5.306;2024-01-15T07:10:00;5.10;;;3.00;;
27187;SDS011;14708;50.872;5.306;2024-01-15T07:12:27;5.22;;;3.08;;
27187;SDS011;14708;50.872;5.306;2024-01-15T07:14:52;5.82;;;3.08;;
27187;SDS011;14708;50.872;5.306;2024-01-15T07:17:19;3.80;;;2.75;;
27187;SDS011;14708;50.872;5.306;2024-01-15T07:19:46;3.28;;;2.65;;
27187;SDS011;14708;50.872;5.306;2024-01-15T07:22:11;2.85;;;2.20;;
27187;SDS011;14708;50.872;5.306;2024-01-15T07:24:38;3.50;;;2.70;;
27187;SDS011;14708;50.872;5.306;2024-01-15T07:27:04;3.25;;;2.20;;
27187;SDS011;14708;50.872;5.306;2024-01-15T07:29:30;3.17;;;2.45;;
27187;SDS011;14708;50.872;5.306;2024-01-15T07:32:02;3.17;;;2.42;;
27187;SDS011;14708;50.872;5.306;2024-01-15T07:34:29;2.55;;;2.17;;
27187;SDS011;14708;50.872;5.306;2024-01-15T07:36:54;3.40;;;2.65;;
27187;SDS011;14708;50.872;5.306;2024-01-15T07:39:22;4.57;;;2.60;;
27187;SDS011;14708;50.872;5.306;2024-01-15T07:41:51;4.15;;;2.00;;
27187;SDS011;14708;50.872;5.306;2024-01-15T07:44:17;2.80;;;2.22;;
27187;SDS011;14708;50.872;5.306;2024-01-15T07:46:46;3.70;;;2.47;;
27187;SDS011;14708;50.872;5.306;2024-01-15T07:49:12;3.95;;;1.88;;
27187;SDS011;14708;50.872;5.306;2024-01-15T07:51:39;4.45;;;2.25;;
27187;SDS011;14708;50.872;5.306;2024-01-15T07:54:06;5.05;;;1.95;;
27187;SDS011;14708;50.872;5.306;2024-01-15T07:56:32;6.68;;;2.85;;
27187;SDS011;14708;50.872;5.306;2024-01-15T07:58:58;14.77;;;3.75;;
27187;SDS011;14708;50.872;5.306;2024-01-15T08:01:24;17.35;;;4.68;;
27187;SDS011;14708;50.872;5.306;2024-01-15T08:03:50;21.90;;;5.03;;
27187;SDS011;14708;50.872;5.306;2024-01-15T08:06:18;15.50;;;4.13;;
27187;SDS011;14708;50.872;5.306;2024-01-15T08:08:43;11.23;;;3.78;;
27187;SDS011;14708;50.872;5.306;2024-01-15T08:11:10;15.65;;;4.90;;
27187;SDS011;14708;50.872;5.306;2024-01-15T08:13:36;15.00;;;5.25;;
27187;SDS011;14708;50.872;5.306;2024-01-15T08:16:03;14.60;;;4.30;;
27187;SDS011;14708;50.872;5.306;2024-01-15T08:18:29;10.23;;;4.00;;
27187;SDS011;14708;50.872;5.306;2024-01-15T08:20:56;13.95;;;4.80;;
27187;SDS011;14708;50.872;5.306;2024-01-15T08:23:22;15.88;;;4.80;;
27187;SDS011;14708;50.872;5.306;2024-01-15T08:25:49;11.73;;;4.03;;
27187;SDS011;14708;50.872;5.306;2024-01-15T08:28:16;19.20;;;5.05;;
27187;SDS011;14708;50.872;5.306;2024-01-15T08:30:41;12.02;;;4.30;;
27187;SDS011;14708;50.872;5.306;2024-01-15T08:33:07;13.35;;;4.93;;
27187;SDS011;14708;50.872;5.306;2024-01-15T08:35:33;17.30;;;5.35;;
27187;SDS011;14708;50.872;5.306;2024-01-15T08:37:58;13.00;;;4.15;;
27187;SDS011;14708;50.872;5.306;2024-01-15T08:40:24;9.80;;;3.85;;
27187;SDS011;14708;50.872;5.306;2024-01-15T08:42:50;17.20;;;4.10;;
27187;SDS011;14708;50.872;5.306;2024-01-15T08:45:15;12.43;;;3.90;;
27187;SDS011;14708;50.872;5.306;2024-01-15T08:47:45;11.77;;;3.78;;
27187;SDS011;14708;50.872;5.306;2024-01-15T08:50:11;11.52;;;4.18;;
27187;SDS011;14708;50.872;5.306;2024-01-15T08:52:37;12.20;;;3.85;;
27187;SDS011;14708;50.872;5.306;2024-01-15T08:55:03;10.32;;;3.45;;
27187;SDS011;14708;50.872;5.306;2024-01-15T08:57:29;10.48;;;3.85;;
27187;SDS011;14708;50.872;5.306;2024-01-15T08:59:55;7.68;;;3.35;;
27187;SDS011;14708;50.872;5.306;2024-01-15T09:02:21;12.57;;;3.78;;
27187;SDS011;14708;50.872;5.306;2024-01-15T09:04:47;11.20;;;4.18;;
27187;SDS011;14708;50.872;5.306;2024-01-15T09:07:13;9.80;;;3.72;;
27187;SDS011;14708;50.872;5.306;2024-01-15T09:09:41;9.63;;;3.10;;
27187;SDS011;14708;50.872;5.306;2024-01-15T09:12:08;14.77;;;4.40;;
27187;SDS011;14708;50.872;5.306;2024-01-15T09:14:34;11.27;;;3.88;;
27187;SDS011;14708;50.872;5.306;2024-01-15T09:17:00;8.90;;;3.80;;
27187;SDS011;14708;50.872;5.306;2024-01-15T09:19:26;10.30;;;3.97;;
27187;SDS011;14708;50.872;5.306;2024-01-15T09:21:52;10.82;;;2.78;;
27187;SDS011;14708;50.872;5.306;2024-01-15T09:24:18;12.93;;;3.60;;
27187;SDS011;14708;50.872;5.306;2024-01-15T09:26:43;10.05;;;3.25;;
27187;SDS011;14708;50.872;5.306;2024-01-15T09:29:10;10.73;;;3.58;;
27187;SDS011;14708;50.872;5.306;2024-01-15T09:31:35;10.25;;;3.65;;
27187;SDS011;14708;50.872;5.306;2024-01-15T09:34:01;11.20;;;3.83;;
27187;SDS011;14708;50.872;5.306;2024-01-15T09:36:27;12.07;;;3.63;;
27187;SDS011;14708;50.872;5.306;2024-01-15T09:38:53;9.05;;;3.03;;
27187;SDS011;14708;50.872;5.306;2024-01-15T09:41:18;8.32;;;2.90;;
27187;SDS011;14708;50.872;5.306;2024-01-15T09:43:45;9.95;;;3.22;;
27187;SDS011;14708;50.872;5.306;2024-01-15T09:46:12;7.53;;;3.15;;
27187;SDS011;14708;50.872;5.306;2024-01-15T09:48:39;6.45;;;3.10;;
27187;SDS011;14708;50.872;5.306;2024-01-15T09:51:05;10.70;;;3.58;;
27187;SDS011;14708;50.872;5.306;2024-01-15T09:53:32;7.75;;;2.65;;
27187;SDS011;14708;50.872;5.306;2024-01-15T09:55:59;8.68;;;3.25;;
27187;SDS011;14708;50.872;5.306;2024-01-15T09:58:26;6.43;;;2.85;;
27187;SDS011;14708;50.872;5.306;2024-01-15T10:00:54;6.03;;;2.50;;
27187;SDS011;14708;50.872;5.306;2024-01-15T10:03:21;9.50;;;3.00;;
27187;SDS011;14708;50.872;5.306;2024-01-15T10:05:46;10.98;;;3.80;;
27187;SDS011;14708;50.872;5.306;2024-01-15T10:08:14;6.60;;;3.10;;
27187;SDS011;14708;50.872;5.306;2024-01-15T10:10:40;8.60;;;3.20;;
27187;SDS011;14708;50.872;5.306;2024-01-15T10:13:07;7.93;;;2.97;;
27187;SDS011;14708;50.872;5.306;2024-01-15T10:15:37;7.40;;;3.45;;
27187;SDS011;14708;50.872;5.306;2024-01-15T10:18:04;7.82;;;2.85;;
27187;SDS011;14708;50.872;5.306;2024-01-15T10:20:31;9.20;;;3.28;;
27187;SDS011;14708;50.872;5.306;2024-01-15T10:22:58;8.57;;;3.47;;
27187;SDS011;14708;50.872;5.306;2024-01-15T10:25:24;8.23;;;3.38;;
27187;SDS011;14708;50.872;5.306;2024-01-15T10:28:03;11.57;;;3.22;;
27187;SDS011;14708;50.872;5.306;2024-01-15T10:30:30;10.90;;;3.08;;
27187;SDS011;14708;50.872;5.306;2024-01-15T10:33:00;7.03;;;3.13;;
27187;SDS011;14708;50.872;5.306;2024-01-15T10:35:28;7.85;;;2.97;;
27187;SDS011;14708;50.872;5.306;2024-01-15T10:38:01;7.72;;;2.90;;
27187;SDS011;14708;50.872;5.306;2024-01-15T10:40:28;10.63;;;3.72;;
27187;SDS011;14708;50.872;5.306;2024-01-15T10:42:54;7.97;;;3.15;;
27187;SDS011;14708;50.872;5.306;2024-01-15T10:45:20;8.85;;;2.95;;
27187;SDS011;14708;50.872;5.306;2024-01-15T10:47:46;5.43;;;3.15;;
27187;SDS011;14708;50.872;5.306;2024-01-15T10:50:13;8.98;;;2.72;;
27187;SDS011;14708;50.872;5.306;2024-01-15T10:52:40;8.77;;;2.75;;
27187;SDS011;14708;50.872;5.306;2024-01-15T10:55:09;8.10;;;3.13;;
27187;SDS011;14708;50.872;5.306;2024-01-15T10:57:38;6.57;;;3.15;;
27187;SDS011;14708;50.872;5.306;2024-01-15T11:00:04;8.43;;;2.80;;
27187;SDS011;14708;50.872;5.306;2024-01-15T11:02:35;5.38;;;2.85;;
27187;SDS011;14708;50.872;5.306;2024-01-15T11:05:02;8.52;;;3.67;;
27187;SDS011;14708;50.872;5.306;2024-01-15T11:07:30;5.30;;;2.40;;
27187;SDS011;14708;50.872;5.306;2024-01-15T11:09:56;7.30;;;2.65;;
27187;SDS011;14708;50.872;5.306;2024-01-15T11:12:24;8.27;;;3.20;;
27187;SDS011;14708;50.872;5.306;2024-01-15T11:14:50;5.03;;;2.53;;
27187;SDS011;14708;50.872;5.306;2024-01-15T11:17:16;8.15;;;2.53;;
27187;SDS011;14708;50.872;5.306;2024-01-15T11:22:55;5.75;;;2.42;;
27187;SDS011;14708;50.872;5.306;2024-01-15T11:25:02;7.57;;;2.80;;
27187;SDS011;14708;50.872;5.306;2024-01-15T11:27:42;6.38;;;2.13;;
27187;SDS011;14708;50.872;5.306;2024-01-15T11:30:09;9.00;;;2.95;;
27187;SDS011;14708;50.872;5.306;2024-01-15T11:32:36;5.70;;;2.40;;
27187;SDS011;14708;50.872;5.306;2024-01-15T11:35:04;11.70;;;2.47;;
27187;SDS011;14708;50.872;5.306;2024-01-15T11:40:19;6.13;;;2.28;;
27187;SDS011;14708;50.872;5.306;2024-01-15T11:42:46;4.10;;;1.70;;
27187;SDS011;14708;50.872;5.306;2024-01-15T11:45:19;3.58;;;1.90;;
27187;SDS011;14708;50.872;5.306;2024-01-15T11:47:57;6.13;;;1.90;;
27187;SDS011;14708;50.872;5.306;2024-01-15T11:50:31;4.60;;;1.70;;
27187;SDS011;14708;50.872;5.306;2024-01-15T11:52:59;7.15;;;2.30;;
27187;SDS011;14708;50.872;5.306;2024-01-15T11:55:27;7.43;;;2.13;;
27187;SDS011;14708;50.872;5.306;2024-01-15T11:57:58;4.88;;;1.80;;
27187;SDS011;14708;50.872;5.306;2024-01-15T12:00:26;5.68;;;1.92;;
27187;SDS011;14708;50.872;5.306;2024-01-15T12:02:53;5.20;;;1.98;;
27187;SDS011;14708;50.872;5.306;2024-01-15T12:05:19;6.70;;;1.75;;
27187;SDS011;14708;50.872;5.306;2024-01-15T12:07:46;6.50;;;1.67;;
27187;SDS011;14708;50.872;5.306;2024-01-15T12:10:15;3.53;;;1.90;;
27187;SDS011;14708;50.872;5.306;2024-01-15T12:15:25;5.10;;;1.95;;
27187;SDS011;14708;50.872;5.306;2024-01-15T12:17:58;5.63;;;2.33;;
27187;SDS011;14708;50.872;5.306;2024-01-15T12:20:27;8.52;;;2.58;;
27187;SDS011;14708;50.872;5.306;2024-01-15T12:22:53;4.45;;;1.65;;
27187;SDS011;14708;50.872;5.306;2024-01-15T12:25:22;5.22;;;1.55;;
27187;SDS011;14708;50.872;5.306;2024-01-15T12:27:49;10.90;;;2.17;;
27187;SDS011;14708;50.872;5.306;2024-01-15T12:30:15;7.22;;;2.08;;
27187;SDS011;14708;50.872;5.306;2024-01-15T12:32:41;5.78;;;1.80;;
27187;SDS011;14708;50.872;5.306;2024-01-15T12:35:07;4.45;;;1.77;;
27187;SDS011;14708;50.872;5.306;2024-01-15T12:37:35;5.13;;;2.00;;
27187;SDS011;14708;50.872;5.306;2024-01-15T12:40:02;6.70;;;2.00;;
27187;SDS011;14708;50.872;5.306;2024-01-15T12:42:29;6.07;;;1.98;;
27187;SDS011;14708;50.872;5.306;2024-01-15T12:44:56;4.47;;;1.90;;
27187;SDS011;14708;50.872;5.306;2024-01-15T12:47:22;4.75;;;1.60;;
27187;SDS011;14708;50.872;5.306;2024-01-15T12:49:48;8.40;;;2.63;;
27187;SDS011;14708;50.872;5.306;2024-01-15T12:52:19;3.55;;;1.45;;
27187;SDS011;14708;50.872;5.306;2024-01-15T12:54:47;4.72;;;2.13;;
27187;SDS011;14708;50.872;5.306;2024-01-15T12:57:13;3.47;;;1.45;;
27187;SDS011;14708;50.872;5.306;2024-01-15T12:59:39;4.45;;;1.90;;
27187;SDS011;14708;50.872;5.306;2024-01-15T13:02:05;4.03;;;2.22;;
27187;SDS011;14708;50.872;5.306;2024-01-15T13:04:32;5.32;;;1.83;;
27187;SDS011;14708;50.872;5.306;2024-01-15T13:06:58;4.22;;;1.70;;
27187;SDS011;14708;50.872;5.306;2024-01-15T13:09:24;5.90;;;1.70;;
27187;SDS011;14708;50.872;5.306;2024-01-15T13:15:12;4.35;;;1.50;;
27187;SDS011;14708;50.872;5.306;2024-01-15T13:17:38;4.03;;;1.80;;
27187;SDS011;14708;50.872;5.306;2024-01-15T13:20:05;3.60;;;1.73;;
27187;SDS011;14708;50.872;5.306;2024-01-15T13:22:32;5.47;;;1.50;;
27187;SDS011;14708;50.872;5.306;2024-01-15T13:24:58;5.75;;;1.80;;
27187;SDS011;14708;50.872;5.306;2024-01-15T13:27:24;5.20;;;1.77;;
27187;SDS011;14708;50.872;5.306;2024-01-15T13:29:50;4.22;;;1.40;;
27187;SDS011;14708;50.872;5.306;2024-01-15T13:32:23;4.18;;;1.40;;
27187;SDS011;14708;50.872;5.306;2024-01-15T13:34:51;4.13;;;1.55;;
27187;SDS011;14708;50.872;5.306;2024-01-15T13:37:17;5.07;;;1.85;;
27187;SDS011;14708;50.872;5.306;2024-01-15T13:39:42;2.83;;;1.27;;
27187;SDS011;14708;50.872;5.306;2024-01-15T13:42:08;7.07;;;1.63;;
27187;SDS011;14708;50.872;5.306;2024-01-15T13:44:36;2.50;;;1.40;;
27187;SDS011;14708;50.872;5.306;2024-01-15T13:47:03;6.22;;;1.63;;
27187;SDS011;14708;50.872;5.306;2024-01-15T13:49:30;2.83;;;0.98;;
27187;SDS011;14708;50.872;5.306;2024-01-15T13:51:56;4.07;;;1.58;;
27187;SDS011;14708;50.872;5.306;2024-01-15T13:54:22;4.70;;;1.65;;
27187;SDS011;14708;50.872;5.306;2024-01-15T13:56:47;9.25;;;2.10;;
27187;SDS011;14708;50.872;5.306;2024-01-15T13:59:14;3.95;;;2.25;;
27187;SDS011;14708;50.872;5.306;2024-01-15T14:01:40;11.30;;;2.50;;
27187;SDS011;14708;50.872;5.306;2024-01-15T14:04:07;5.05;;;1.90;;
27187;SDS011;14708;50.872;5.306;2024-01-15T14:06:32;6.25;;;2.35;;
27187;SDS011;14708;50.872;5.306;2024-01-15T14:08:58;6.35;;;2.90;;
27187;SDS011;14708;50.872;5.306;2024-01-15T14:13:49;6.47;;;2.95;;
27187;SDS011;14708;50.872;5.306;2024-01-15T14:16:16;7.40;;;3.65;;
27187;SDS011;14708;50.872;5.306;2024-01-15T14:18:42;7.90;;;3.85;;
27187;SDS011;14708;50.872;5.306;2024-01-15T14:21:08;8.65;;;3.85;;
27187;SDS011;14708;50.872;5.306;2024-01-15T14:23:34;8.80;;;4.00;;
27187;SDS011;14708;50.872;5.306;2024-01-15T14:26:01;7.47;;;3.22;;
27187;SDS011;14708;50.872;5.306;2024-01-15T14:28:27;8.40;;;3.17;;
27187;SDS011;14708;50.872;5.306;2024-01-15T14:30:53;6.82;;;3.03;;
27187;SDS011;14708;50.872;5.306;2024-01-15T14:33:23;7.60;;;3.22;;
27187;SDS011;14708;50.872;5.306;2024-01-15T14:35:48;5.53;;;2.40;;
27187;SDS011;14708;50.872;5.306;2024-01-15T14:38:14;7.45;;;2.78;;
27187;SDS011;14708;50.872;5.306;2024-01-15T14:40:40;3.95;;;1.95;;
27187;SDS011;14708;50.872;5.306;2024-01-15T14:43:06;4.70;;;2.83;;
27187;SDS011;14708;50.872;5.306;2024-01-15T14:45:33;7.07;;;2.50;;
27187;SDS011;14708;50.872;5.306;2024-01-15T14:47:59;5.15;;;2.38;;
27187;SDS011;14708;50.872;5.306;2024-01-15T14:50:25;4.18;;;2.47;;
27187;SDS011;14708;50.872;5.306;2024-01-15T14:52:50;4.65;;;2.50;;
27187;SDS011;14708;50.872;5.306;2024-01-15T14:55:17;4.40;;;2.10;;
27187;SDS011;14708;50.872;5.306;2024-01-15T14:57:44;4.45;;;2.20;;